createdAt,value
2023-05-01T00:00:23.209Z,95114.80
2023-05-01T00:02:50.470Z,95113.20
2023-05-01T00:05:17.073Z,95109.80
2023-05-01T00:07:43.708Z,95105.60
2023-05-01T00:10:10.917Z,95103.60
2023-05-01T00:12:37.598Z,95102.60
2023-05-01T00:15:04.942Z,95098.60
2023-05-01T00:17:31.491Z,95095.60
2023-05-01T00:19:58.286Z,95089.00
2023-05-01T00:22:25.158Z,95087.80
2023-05-01T00:24:51.783Z,95083.80
2023-05-01T00:27:18.327Z,95078.00
2023-05-01T00:29:45.046Z,95076.80
2023-05-01T00:32:11.836Z,95079.60
2023-05-01T00:34:38.607Z,95079.60
2023-05-01T00:37:05.353Z,95079.00
2023-05-01T00:39:32.622Z,95080.00
2023-05-01T00:41:59.322Z,95073.60
2023-05-01T00:44:26.095Z,95074.20
2023-05-01T00:46:53.890Z,95071.80
2023-05-01T00:49:20.919Z,95069.40
2023-05-01T00:51:50.226Z,95066.80
2023-05-01T00:54:18.102Z,95066.20
2023-05-01T00:56:46.813Z,95064.80
2023-05-01T00:59:14.641Z,95058.40
2023-05-01T01:01:44.477Z,95056.00
2023-05-01T01:04:12.113Z,95057.60
2023-05-01T01:06:59.197Z,95058.00
2023-05-01T01:09:56.319Z,95062.00
2023-05-01T01:12:35.657Z,95062.40
2023-05-01T01:15:05.700Z,95064.00
2023-05-01T01:18:05.368Z,95063.00
2023-05-01T01:20:49.208Z,95058.80
2023-05-01T01:23:31.444Z,95055.40
2023-05-01T01:26:24.639Z,95051.80
2023-05-01T01:29:12.802Z,95048.60
2023-05-01T01:32:17.901Z,95048.60
2023-05-01T01:34:52.285Z,95046.20
2023-05-01T01:37:33.525Z,95041.20
2023-05-01T01:40:07.014Z,95044.20
2023-05-01T01:42:43.507Z,95041.60
2023-05-01T01:45:19.285Z,95035.40
2023-05-01T01:47:48.068Z,95037.20
2023-05-01T01:50:17.496Z,95036.80
2023-05-01T01:52:47.950Z,95032.00
2023-05-01T01:55:15.422Z,95027.00
2023-05-01T01:57:43.940Z,95025.80
2023-05-01T02:00:12.921Z,95021.00
2023-05-01T02:02:47.087Z,95018.20
2023-05-01T02:05:17.210Z,95017.80
2023-05-01T02:07:48.796Z,95014.60
2023-05-01T02:10:16.334Z,95012.60
2023-05-01T02:12:47.144Z,95011.80
2023-05-01T02:15:18.439Z,95010.40
2023-05-01T02:17:45.652Z,95012.20
2023-05-01T02:20:13.747Z,95011.00
2023-05-01T02:22:41.133Z,95010.40
2023-05-01T02:25:12.502Z,95008.80
2023-05-01T02:28:05.426Z,95006.40
2023-05-01T02:30:32.382Z,95008.60
2023-05-01T02:32:59.385Z,95005.60
2023-05-01T02:35:26.319Z,95001.00
2023-05-01T02:37:52.972Z,95001.20
2023-05-01T02:40:19.898Z,94997.40
2023-05-01T02:42:49.368Z,94996.00
2023-05-01T02:45:21.136Z,94987.00
2023-05-01T02:47:53.892Z,94982.80
2023-05-01T02:50:22.240Z,94982.20
2023-05-01T02:52:49.856Z,94978.20
2023-05-01T02:55:31.977Z,94979.20
2023-05-01T02:57:59.881Z,94981.20
2023-05-01T03:00:28.102Z,94983.60
2023-05-01T03:02:54.784Z,94987.00
2023-05-01T03:05:21.535Z,94984.00
2023-05-01T03:07:48.410Z,94984.60
2023-05-01T03:10:14.997Z,94980.60
2023-05-01T03:12:41.909Z,94981.40
2023-05-01T03:15:09.377Z,94980.60
2023-05-01T03:17:36.074Z,94983.60
2023-05-01T03:20:06.315Z,94980.00
2023-05-01T03:22:33.311Z,94979.60
2023-05-01T03:25:00.732Z,94981.00
2023-05-01T03:27:27.579Z,94980.20
2023-05-01T03:29:54.481Z,94977.20
2023-05-01T03:32:21.683Z,94976.00
2023-05-01T03:34:49.174Z,94972.00
2023-05-01T03:37:16.417Z,94974.20
2023-05-01T03:39:43.143Z,94977.60
2023-05-01T03:42:28.875Z,94976.60
2023-05-01T03:44:59.950Z,94973.60
2023-05-01T03:47:28.982Z,94973.80
2023-05-01T03:49:56.113Z,94971.80
2023-05-01T03:52:23.156Z,94971.00
2023-05-01T03:54:50.211Z,94968.00
2023-05-01T03:57:30.357Z,94966.20
2023-05-01T03:59:57.569Z,94960.60
2023-05-01T04:02:24.669Z,94964.00
2023-05-01T04:04:51.697Z,94966.00
2023-05-01T04:07:18.337Z,94963.20
2023-05-01T04:09:45.852Z,94959.00
2023-05-01T04:12:12.947Z,94954.80
2023-05-01T04:14:39.613Z,94950.80
2023-05-01T04:17:06.463Z,94958.60
2023-05-01T04:19:35.755Z,94956.60
2023-05-01T04:22:02.353Z,94954.20
2023-05-01T04:24:30.399Z,94952.20
2023-05-01T04:26:58.947Z,94954.00
2023-05-01T04:29:25.606Z,94951.60
2023-05-01T04:31:52.256Z,94950.60
2023-05-01T04:34:19.704Z,94954.40
2023-05-01T04:36:46.349Z,94950.20
2023-05-01T04:39:12.983Z,94947.00
2023-05-01T04:41:39.622Z,94945.20
2023-05-01T04:44:06.348Z,94949.00
2023-05-01T04:46:33.494Z,94949.00
2023-05-01T04:49:00.689Z,94949.20
2023-05-01T04:51:29.091Z,94953.00
2023-05-01T04:53:56.278Z,94951.40
2023-05-01T04:56:26.725Z,94949.20
2023-05-01T04:58:56.202Z,94948.60
2023-05-01T05:01:24.824Z,94946.40
2023-05-01T05:03:51.967Z,94944.80
2023-05-01T05:06:19.298Z,94947.40
2023-05-01T05:08:45.992Z,94945.00
2023-05-01T05:11:12.799Z,94945.80
2023-05-01T05:13:48.981Z,94941.20
2023-05-01T05:16:16.198Z,94947.80
2023-05-01T05:18:42.932Z,94951.00
2023-05-01T05:21:10.646Z,94956.80
2023-05-01T05:23:37.965Z,94957.20
2023-05-01T05:26:05.851Z,94954.60
2023-05-01T05:28:32.497Z,94958.60
2023-05-01T05:30:59.285Z,94952.00
2023-05-01T05:33:26.122Z,94953.60
2023-05-01T05:35:53.123Z,94957.40
2023-05-01T05:38:22.454Z,94955.00
2023-05-01T05:40:51.466Z,94957.40
2023-05-01T05:43:18.029Z,94955.40
2023-05-01T05:45:44.754Z,94955.40
2023-05-01T05:48:11.586Z,94954.20
2023-05-01T05:50:40.246Z,94956.20
2023-05-01T05:53:07.009Z,94951.80
2023-05-01T05:55:33.653Z,94957.40
2023-05-01T05:58:04.488Z,94966.40
2023-05-01T06:00:31.313Z,94962.80
2023-05-01T06:03:00.683Z,94963.60
2023-05-01T06:05:28.402Z,94959.60
2023-05-01T06:07:55.037Z,94953.40
2023-05-01T06:10:22.718Z,94955.20
2023-05-01T06:12:57.103Z,94955.80
2023-05-01T06:15:29.794Z,94956.20
2023-05-01T06:17:57.087Z,94953.20
2023-05-01T06:20:24.062Z,94957.00
2023-05-01T06:22:50.698Z,94952.20
2023-05-01T06:25:23.021Z,94955.20
2023-05-01T06:27:51.119Z,94949.20
2023-05-01T06:30:19.745Z,94951.00
2023-05-01T06:32:46.969Z,94952.00
2023-05-01T06:35:14.472Z,94951.60
2023-05-01T06:37:41.142Z,94952.00
2023-05-01T06:40:09.915Z,94954.80
2023-05-01T06:42:39.223Z,94953.60
2023-05-01T06:45:09.198Z,94952.60
2023-05-01T06:47:36.134Z,94955.20
2023-05-01T06:50:05.820Z,94957.20
2023-05-01T06:52:33.923Z,94954.00
2023-05-01T06:55:01.298Z,94961.80
2023-05-01T06:57:27.897Z,94961.40
2023-05-01T06:59:54.668Z,94960.60
2023-05-01T07:02:21.601Z,94957.40
2023-05-01T07:04:48.444Z,94958.60
2023-05-01T07:07:15.092Z,94962.40
2023-05-01T07:09:41.681Z,94963.40
2023-05-01T07:12:08.893Z,94964.60
2023-05-01T07:14:35.969Z,94962.40
2023-05-01T07:17:03.839Z,94964.60
2023-05-01T07:19:30.617Z,94965.80
2023-05-01T07:21:57.250Z,94960.20
2023-05-01T07:24:23.843Z,94959.80
2023-05-01T07:26:50.566Z,94954.60
2023-05-01T07:29:17.199Z,94952.20
2023-05-01T07:31:45.264Z,94954.40
2023-05-01T07:34:11.927Z,94955.00
2023-05-01T07:36:38.737Z,94958.40
2023-05-01T07:39:06.632Z,94956.60
2023-05-01T07:41:33.287Z,94957.60
2023-05-01T07:44:00.047Z,94953.00
2023-05-01T07:46:27.268Z,94955.00
2023-05-01T07:48:54.127Z,94960.40
2023-05-01T07:51:20.889Z,94963.00
2023-05-01T07:53:48.018Z,94965.20
2023-05-01T07:56:15.158Z,94963.40
2023-05-01T07:58:42.698Z,94968.40
2023-05-01T08:01:09.438Z,94962.80
2023-05-01T08:03:36.321Z,94965.20
2023-05-01T08:06:03.191Z,94966.80
2023-05-01T08:08:29.879Z,94967.60
2023-05-01T08:10:56.514Z,94972.60
2023-05-01T08:13:23.240Z,94976.80
2023-05-01T08:15:49.964Z,94977.00
2023-05-01T08:18:21.071Z,94979.60
2023-05-01T08:20:49.258Z,94981.80
2023-05-01T08:23:17.363Z,94983.00
2023-05-01T08:25:47.218Z,94983.00
2023-05-01T08:28:14.863Z,94985.80
2023-05-01T08:30:41.523Z,94988.80
2023-05-01T08:33:08.166Z,94991.80
2023-05-01T08:35:34.765Z,94991.60
2023-05-01T08:38:01.753Z,94992.60
2023-05-01T08:40:34.482Z,94994.80
2023-05-01T08:43:02.510Z,94992.60
2023-05-01T08:45:35.898Z,94995.60
2023-05-01T08:48:13.068Z,94997.40
2023-05-01T08:50:41.586Z,94994.60
2023-05-01T08:53:12.233Z,94998.80
2023-05-01T08:55:38.955Z,94996.80
2023-05-01T08:58:07.929Z,95001.80
2023-05-01T09:00:37.355Z,95005.80
2023-05-01T09:03:05.612Z,95006.40
2023-05-01T09:05:33.745Z,95002.00
2023-05-01T09:08:01.331Z,95006.40
2023-05-01T09:10:31.738Z,95008.80
2023-05-01T09:13:07.053Z,95013.20
2023-05-01T09:15:33.762Z,95017.00
2023-05-01T09:18:03.604Z,95015.60
2023-05-01T09:20:32.597Z,95017.00
2023-05-01T09:22:59.333Z,95023.00
2023-05-01T09:25:26.358Z,95021.40
2023-05-01T09:27:53.492Z,95020.60
2023-05-01T09:30:38.097Z,95028.80
2023-05-01T09:33:10.378Z,95030.00
2023-05-01T09:35:57.322Z,95036.40
2023-05-01T09:38:26.561Z,95031.20
2023-05-01T09:40:57.156Z,95033.40
2023-05-01T09:43:28.457Z,95033.40
2023-05-01T09:46:10.490Z,95037.00
2023-05-01T09:48:38.839Z,95036.20
2023-05-01T09:51:23.736Z,95039.80
2023-05-01T09:53:52.294Z,95047.20
2023-05-01T09:56:21.463Z,95051.00
2023-05-01T09:58:52.353Z,95048.20
2023-05-01T10:01:38.891Z,95048.60
2023-05-01T10:04:06.049Z,95051.80
2023-05-01T10:06:32.857Z,95051.20
2023-05-01T10:08:59.364Z,95049.60
2023-05-01T10:11:27.150Z,95049.00
2023-05-01T10:14:11.199Z,95051.60
2023-05-01T10:16:38.886Z,95054.40
2023-05-01T10:19:06.452Z,95047.40
2023-05-01T10:21:34.035Z,95047.80
2023-05-01T10:24:06.166Z,95047.00
2023-05-01T10:26:37.373Z,95050.00
2023-05-01T10:29:04.468Z,95048.60
2023-05-01T10:31:32.945Z,95049.80
2023-05-01T10:34:02.078Z,95052.20
2023-05-01T10:36:42.902Z,95049.20
2023-05-01T10:39:34.165Z,95048.60
2023-05-01T10:42:14.444Z,95042.00
2023-05-01T10:44:42.578Z,95044.00
2023-05-01T10:47:24.530Z,95044.00
2023-05-01T10:50:07.856Z,95046.40
2023-05-01T10:53:15.690Z,95044.00
2023-05-01T10:55:47.968Z,95043.40
2023-05-01T10:58:37.215Z,95036.20
2023-05-01T11:01:36.941Z,95034.20
2023-05-01T11:04:21.959Z,95026.40
2023-05-01T11:07:11.334Z,95029.40
2023-05-01T11:09:51.276Z,95027.00
2023-05-01T11:12:47.086Z,95027.80
2023-05-01T11:15:33.911Z,95022.40
2023-05-01T11:18:03.634Z,95023.20
2023-05-01T11:20:36.457Z,95021.00
2023-05-01T11:23:03.104Z,95020.80
2023-05-01T11:25:31.921Z,95022.60
2023-05-01T11:28:01.412Z,95021.20
2023-05-01T11:30:42.256Z,95022.20
2023-05-01T11:33:10.568Z,95016.60
2023-05-01T11:35:38.712Z,95013.20
2023-05-01T11:38:05.529Z,95007.40
2023-05-01T11:40:34.994Z,95008.20
2023-05-01T11:43:08.924Z,95006.20
2023-05-01T11:45:37.462Z,95007.80
2023-05-01T11:48:05.561Z,95005.80
2023-05-01T11:50:35.916Z,95005.60
2023-05-01T11:53:04.717Z,95004.00
2023-05-01T11:55:32.986Z,95005.40
2023-05-01T11:57:59.907Z,95009.00
2023-05-01T12:00:37.963Z,95005.60
2023-05-01T12:03:08.527Z,95002.00
2023-05-01T12:05:38.939Z,95007.40
2023-05-01T12:08:19.627Z,95007.40
2023-05-01T12:10:49.868Z,95006.00
2023-05-01T12:13:17.307Z,95007.80
2023-05-01T12:15:47.221Z,95008.00
2023-05-01T12:18:15.601Z,95008.80
2023-05-01T12:20:46.253Z,95007.00
2023-05-01T12:23:16.402Z,95010.00
2023-05-01T12:25:44.927Z,95009.00
2023-05-01T12:28:19.911Z,95005.00
2023-05-01T12:30:49.181Z,95004.20
2023-05-01T12:33:19.393Z,95003.20
2023-05-01T12:35:50.004Z,95003.80
2023-05-01T12:38:19.954Z,95005.40
2023-05-01T12:40:57.671Z,95005.80
2023-05-01T12:43:37.188Z,95006.00
2023-05-01T12:46:05.739Z,95005.40
2023-05-01T12:48:34.263Z,95003.60
2023-05-01T12:51:01.362Z,95003.00
2023-05-01T12:53:29.944Z,95001.20
2023-05-01T12:55:58.780Z,95001.60
2023-05-01T12:58:38.563Z,95002.00
2023-05-01T13:01:06.263Z,95004.80
2023-05-01T13:03:37.676Z,95008.00
2023-05-01T13:06:07.406Z,95007.80
2023-05-01T13:08:40.054Z,95005.60
2023-05-01T13:11:16.177Z,95002.40
2023-05-01T13:13:46.122Z,95007.40
2023-05-01T13:16:17.082Z,95005.80
2023-05-01T13:18:52.302Z,94999.80
2023-05-01T13:21:22.779Z,94996.40
2023-05-01T13:24:01.286Z,94996.20
2023-05-01T13:26:35.621Z,94989.40
2023-05-01T13:29:05.910Z,94986.80
2023-05-01T13:31:32.729Z,94988.00
2023-05-01T13:33:59.972Z,94987.00
2023-05-01T13:36:33.132Z,94986.60
2023-05-01T13:38:59.854Z,94990.20
2023-05-01T13:41:27.652Z,94988.80
2023-05-01T13:43:56.759Z,94990.20
2023-05-01T13:46:26.884Z,94995.60
2023-05-01T13:48:53.704Z,94994.60
2023-05-01T13:51:23.785Z,94993.80
2023-05-01T13:53:53.229Z,94996.40
2023-05-01T13:56:21.773Z,94990.20
2023-05-01T13:58:50.442Z,94990.20
2023-05-01T14:01:23.529Z,94985.00
2023-05-01T14:03:50.735Z,94983.80
2023-05-01T14:06:21.917Z,94985.00
2023-05-01T14:08:51.223Z,94982.00
2023-05-01T14:11:20.122Z,94984.40
2023-05-01T14:13:49.794Z,94982.40
2023-05-01T14:16:40.894Z,94975.40
2023-05-01T14:19:08.996Z,94972.60
2023-05-01T14:21:44.282Z,94972.60
2023-05-01T14:24:11.118Z,94974.80
2023-05-01T14:26:44.489Z,94979.40
2023-05-01T14:29:25.220Z,94979.60
2023-05-01T14:31:52.732Z,94979.20
2023-05-01T14:34:20.615Z,94981.00
2023-05-01T14:36:47.335Z,94980.60
2023-05-01T14:39:15.895Z,94983.00
2023-05-01T14:41:42.997Z,94982.20
2023-05-01T14:44:19.565Z,94985.20
2023-05-01T14:46:51.442Z,94984.20
2023-05-01T14:49:24.585Z,94984.20
2023-05-01T14:51:53.973Z,94987.80
2023-05-01T14:54:21.258Z,94987.80
2023-05-01T14:56:48.924Z,94988.60
2023-05-01T14:59:16.435Z,94988.20
2023-05-01T15:01:44.102Z,94992.20
2023-05-01T15:04:12.721Z,94992.40
2023-05-01T15:06:39.726Z,94992.00
2023-05-01T15:09:06.565Z,94993.20
2023-05-01T15:11:33.331Z,94993.40
2023-05-01T15:14:00.015Z,94997.00
2023-05-01T15:16:26.777Z,94998.20
2023-05-01T15:18:53.427Z,94998.60
2023-05-01T15:21:20.054Z,95001.00
2023-05-01T15:23:46.728Z,95007.20
2023-05-01T15:26:13.912Z,95007.00
2023-05-01T15:28:40.633Z,95005.40
2023-05-01T15:31:07.526Z,95004.80
2023-05-01T15:33:34.238Z,95008.00
2023-05-01T15:36:01.172Z,95007.40
2023-05-01T15:38:28.524Z,95007.20
2023-05-01T15:40:56.350Z,95012.60
2023-05-01T15:43:23.468Z,95011.60
2023-05-01T15:45:51.540Z,95013.20
2023-05-01T15:48:18.612Z,95018.80
2023-05-01T15:50:47.438Z,95012.40
2023-05-01T15:53:17.430Z,95015.20
2023-05-01T15:55:44.182Z,95018.00
2023-05-01T15:58:10.992Z,95020.80
2023-05-01T16:00:39.712Z,95023.00
2023-05-01T16:03:08.741Z,95024.20
2023-05-01T16:05:38.087Z,95023.40
2023-05-01T16:08:06.574Z,95022.60
2023-05-01T16:10:37.387Z,95020.60
2023-05-01T16:13:08.682Z,95019.80
2023-05-01T16:15:37.028Z,95019.40
2023-05-01T16:18:05.286Z,95020.60
2023-05-01T16:20:39.517Z,95026.20
2023-05-01T16:23:06.182Z,95026.40
2023-05-01T16:25:32.913Z,95025.80
2023-05-01T16:27:59.803Z,95030.40
2023-05-01T16:30:28.220Z,95033.60
2023-05-01T16:32:55.135Z,95036.00
2023-05-01T16:35:27.882Z,95035.20
2023-05-01T16:37:55.997Z,95039.20
2023-05-01T16:40:23.105Z,95040.80
2023-05-01T16:42:54.303Z,95037.00
2023-05-01T16:45:21.928Z,95038.60
2023-05-01T16:47:48.757Z,95037.40
2023-05-01T16:50:16.824Z,95040.80
2023-05-01T16:52:43.448Z,95045.80
2023-05-01T16:55:10.211Z,95044.00
2023-05-01T16:57:36.863Z,95049.40
2023-05-01T17:00:05.293Z,95046.20
2023-05-01T17:02:33.533Z,95050.60
2023-05-01T17:05:00.278Z,95046.80
2023-05-01T17:07:26.977Z,95050.40
2023-05-01T17:09:53.722Z,95050.00
2023-05-01T17:12:20.382Z,95055.60
2023-05-01T17:14:46.999Z,95056.80
2023-05-01T17:17:13.625Z,95059.40
2023-05-01T17:19:40.273Z,95061.00
2023-05-01T17:22:07.474Z,95066.60
2023-05-01T17:24:35.782Z,95066.80
2023-05-01T17:27:03.530Z,95073.40
2023-05-01T17:29:30.244Z,95068.80
2023-05-01T17:31:56.929Z,95073.00
2023-05-01T17:34:23.643Z,95075.40
2023-05-01T17:36:50.375Z,95073.40
2023-05-01T17:39:17.032Z,95078.00
2023-05-01T17:41:43.774Z,95078.20
2023-05-01T17:44:10.489Z,95079.00
2023-05-01T17:46:38.856Z,95080.00
2023-05-01T17:49:06.261Z,95080.60
2023-05-01T17:51:33.832Z,95079.80
2023-05-01T17:54:01.416Z,95083.60
2023-05-01T17:56:28.312Z,95087.60
2023-05-01T17:58:55.032Z,95086.40
2023-05-01T18:01:21.816Z,95083.60
2023-05-01T18:03:49.201Z,95093.00
2023-05-01T18:06:16.601Z,95095.40
2023-05-01T18:08:43.228Z,95100.40
2023-05-01T18:11:09.867Z,95101.20
2023-05-01T18:13:39.609Z,95104.40
2023-05-01T18:16:06.359Z,95107.20
2023-05-01T18:18:33.030Z,95110.00
2023-05-01T18:20:59.652Z,95110.20
2023-05-01T18:23:26.284Z,95115.00
2023-05-01T18:25:55.977Z,95112.60
2023-05-01T18:28:22.753Z,95120.80
2023-05-01T18:30:49.350Z,95122.60
2023-05-01T18:33:16.132Z,95123.60
2023-05-01T18:35:42.885Z,95123.80
2023-05-01T18:38:10.728Z,95125.20
2023-05-01T18:40:37.938Z,95126.00
2023-05-01T18:43:05.057Z,95125.80
2023-05-01T18:45:31.857Z,95132.00
2023-05-01T18:48:03.515Z,95137.40
2023-05-01T18:50:30.307Z,95140.40
2023-05-01T18:52:57.097Z,95144.40
2023-05-01T18:55:25.111Z,95150.20
2023-05-01T18:57:52.062Z,95153.20
2023-05-01T19:00:20.429Z,95156.60
2023-05-01T19:02:51.499Z,95156.60
2023-05-01T19:05:19.257Z,95163.00
2023-05-01T19:07:46.541Z,95167.60
2023-05-01T19:10:13.794Z,95169.40
2023-05-01T19:12:42.047Z,95171.20
2023-05-01T19:15:09.777Z,95176.60
2023-05-01T19:17:36.728Z,95177.20
2023-05-01T19:20:04.634Z,95176.80
2023-05-01T19:22:31.377Z,95174.20
2023-05-01T19:24:58.118Z,95174.60
2023-05-01T19:27:25.494Z,95171.20
2023-05-01T19:29:53.856Z,95175.60
2023-05-01T19:32:20.847Z,95170.00
2023-05-01T19:34:47.524Z,95167.40
2023-05-01T19:37:14.133Z,95171.20
2023-05-01T19:39:40.747Z,95171.20
2023-05-01T19:42:07.305Z,95172.40
2023-05-01T19:44:33.923Z,95171.60
2023-05-01T19:47:00.752Z,95172.80
2023-05-01T19:49:27.628Z,95174.80
2023-05-01T19:51:54.213Z,95175.80
2023-05-01T19:54:22.411Z,95179.60
2023-05-01T19:56:51.591Z,95180.00
2023-05-01T19:59:19.573Z,95185.00
2023-05-01T20:01:46.497Z,95185.80
2023-05-01T20:04:13.314Z,95185.80
2023-05-01T20:06:39.946Z,95191.20
2023-05-01T20:09:07.235Z,95197.60
2023-05-01T20:11:33.910Z,95201.20
2023-05-01T20:14:02.312Z,95205.20
2023-05-01T20:16:30.190Z,95207.80
2023-05-01T20:18:56.874Z,95213.20
2023-05-01T20:21:23.480Z,95214.40
2023-05-01T20:23:50.854Z,95218.60
2023-05-01T20:26:18.975Z,95218.80
2023-05-01T20:28:45.897Z,95219.20
2023-05-01T20:31:13.346Z,95219.00
2023-05-01T20:33:40.321Z,95219.80
2023-05-01T20:36:07.418Z,95222.80
2023-05-01T20:38:43.029Z,95222.80
2023-05-01T20:41:10.039Z,95225.00
2023-05-01T20:43:36.957Z,95224.20
2023-05-01T20:46:03.719Z,95221.80
2023-05-01T20:48:30.519Z,95223.20
2023-05-01T20:50:57.247Z,95225.80
2023-05-01T20:53:23.900Z,95225.20
2023-05-01T20:55:50.557Z,95228.00
2023-05-01T20:58:17.195Z,95234.60
2023-05-01T21:00:44.042Z,95237.40
2023-05-01T21:03:10.986Z,95236.40
2023-05-01T21:05:37.762Z,95241.00
2023-05-01T21:08:04.446Z,95239.80
2023-05-01T21:10:31.611Z,95240.20
2023-05-01T21:12:58.532Z,95238.40
2023-05-01T21:15:26.923Z,95243.00
2023-05-01T21:17:53.790Z,95242.20
2023-05-01T21:20:39.370Z,95241.00
2023-05-01T21:23:06.105Z,95247.00
2023-05-01T21:25:32.870Z,95249.80
2023-05-01T21:28:05.491Z,95249.40
2023-05-01T21:30:34.769Z,95255.20
2023-05-01T21:33:05.366Z,95252.60
2023-05-01T21:35:32.820Z,95254.00
2023-05-01T21:38:00.109Z,95250.20
2023-05-01T21:40:27.321Z,95249.40
2023-05-01T21:42:55.149Z,95252.80
2023-05-01T21:45:22.531Z,95251.40
2023-05-01T21:47:51.406Z,95252.60
2023-05-01T21:50:21.396Z,95252.60
2023-05-01T21:52:49.847Z,95252.60
2023-05-01T21:55:22.863Z,95256.60
2023-05-01T21:57:50.248Z,95260.20
2023-05-01T22:00:19.140Z,95265.80
2023-05-01T22:02:49.011Z,95267.20
2023-05-01T22:05:18.876Z,95268.40
2023-05-01T22:07:47.171Z,95266.40
2023-05-01T22:10:18.846Z,95273.00
2023-05-01T22:12:46.204Z,95262.20
2023-05-01T22:15:15.505Z,95268.80
2023-05-01T22:17:42.752Z,95266.80
2023-05-01T22:20:10.809Z,95272.00
2023-05-01T22:22:40.067Z,95268.80
2023-05-01T22:25:07.987Z,95272.60
2023-05-01T22:27:35.586Z,95273.80
2023-05-01T22:30:04.006Z,95277.60
2023-05-01T22:32:30.817Z,95275.00
2023-05-01T22:34:57.582Z,95276.80
2023-05-01T22:37:25.785Z,95278.20
2023-05-01T22:39:53.594Z,95280.00
2023-05-01T22:42:20.940Z,95281.60
2023-05-01T22:44:47.484Z,95286.20
2023-05-01T22:47:14.237Z,95284.20
2023-05-01T22:49:41.479Z,95286.60
2023-05-01T22:52:08.211Z,95286.80
2023-05-01T22:54:34.986Z,95287.60
2023-05-01T22:57:01.579Z,95287.60
2023-05-01T22:59:28.210Z,95288.40
2023-05-01T23:01:55.016Z,95290.40
2023-05-01T23:04:21.982Z,95298.00
2023-05-01T23:06:48.716Z,95291.60
2023-05-01T23:09:15.704Z,95292.80
2023-05-01T23:11:42.515Z,95288.20
2023-05-01T23:14:09.614Z,95289.40
2023-05-01T23:16:43.534Z,95291.20
2023-05-01T23:19:20.027Z,95291.40
2023-05-01T23:21:47.355Z,95291.20
2023-05-01T23:24:18.397Z,95288.40
2023-05-01T23:26:45.771Z,95289.60
2023-05-01T23:29:14.285Z,95283.60
2023-05-01T23:31:47.213Z,95283.00
2023-05-01T23:34:17.890Z,95279.00
2023-05-01T23:36:47.709Z,95281.40
2023-05-01T23:39:16.405Z,95283.20
2023-05-01T23:41:43.478Z,95281.60
2023-05-01T23:44:10.771Z,95276.60
2023-05-01T23:46:38.199Z,95278.00
2023-05-01T23:49:05.072Z,95281.80
2023-05-01T23:51:32.142Z,95282.40
2023-05-01T23:53:59.527Z,95284.20
2023-05-01T23:56:26.364Z,95285.80
2023-05-01T23:58:52.929Z,95284.20
